| time (UTC) | temp F | wind direction | speed MPH | gust MPH | rain 1hr in | rain 24hr in | rain mn in | humidity % | barometer mb |
| 20260507095230 | 37 | 233 | 5.0 | 10.0 | 0.00 | 0.25 | 0.00 | 84 | |
| 20260507094722 | 37 | 237 | 6.0 | 15.0 | 0.00 | 0.25 | 0.00 | 85 | |
| 20260507094230 | 37 | 204 | 7.0 | 15.0 | 0.00 | 0.25 | 0.00 | 86 | |
| 20260507093720 | 37 | 194 | 10.0 | 14.0 | 0.00 | 0.25 | 0.00 | 87 | |
| 20260507092724 | 37 | 242 | 10.0 | 15.0 | 0.00 | 0.25 | 0.00 | 88 | |
| 20260507092233 | 37 | 243 | 7.0 | 14.0 | 0.00 | 0.25 | 0.00 | 88 | |
| 20260507091723 | 37 | 194 | 9.0 | 15.0 | 0.00 | 0.25 | 0.00 | 87 | |
| 20260507091232 | 37 | 209 | 7.0 | 14.0 | 0.00 | 0.25 | 0.00 | 87 | |
| 20260507090721 | 37 | 210 | 7.0 | 14.0 | 0.00 | 0.25 | 0.00 | 87 | |
| 20260507090230 | 37 | 225 | 7.0 | 15.0 | 0.00 | 0.25 | 0.00 | 87 | |
| 20260507085720 | 37 | 208 | 8.0 | 16.0 | 0.00 | 0.25 | 0.00 | 87 | |
| 20260507085229 | 37 | 188 | 10.0 | 16.0 | 0.00 | 0.25 | 0.00 | 88 | |
| 20260507084723 | 37 | 224 | 9.0 | 14.0 | 0.00 | 0.25 | 0.00 | 88 | |
| 20260507084232 | 37 | 214 | 7.0 | 21.0 | 0.00 | 0.25 | 0.00 | 88 | |
| 20260507083722 | 37 | 205 | 12.0 | 22.0 | 0.00 | 0.25 | 0.00 | 88 | |
| 20260507083232 | 37 | 213 | 13.0 | 22.0 | 0.00 | 0.25 | 0.00 | 88 | |
| 20260507082233 | 37 | 206 | 10.0 | 17.0 | 0.01 | 0.25 | 0.00 | 88 | |
| 20260507081725 | 37 | 244 | 12.0 | 19.0 | 0.01 | 0.25 | 0.00 | 88 | |
| 20260507081234 | 37 | 233 | 11.0 | 21.0 | 0.02 | 0.25 | 0.00 | 87 | |
| 20260507080723 | 37 | 214 | 11.0 | 21.0 | 0.02 | 0.25 | 0.00 | 87 | |
| 20260507080217 | 37 | 227 | 13.0 | 21.0 | 0.03 | 0.25 | 0.00 | 86 | |
| 20260507075728 | 37 | 215 | 7.0 | 14.0 | 0.03 | 0.25 | 0.25 | 88 | |
| 20260507075218 | 37 | 223 | 7.0 | 14.0 | 0.03 | 0.25 | 0.25 | 88 | |
| 20260507074728 | 37 | 221 | 7.0 | 14.0 | 0.04 | 0.25 | 0.25 | 88 | |
| 20260507074218 | 37 | 191 | 7.0 | 13.0 | 0.05 | 0.25 | 0.25 | 87 | |
| 20260507073217 | 38 | 243 | 8.0 | 12.0 | 0.06 | 0.25 | 0.25 | 84 | |
| 20260507072217 | 39 | 185 | 7.0 | 14.0 | 0.06 | 0.24 | 0.24 | 81 | |
| 20260507071727 | 39 | 214 | 7.0 | 11.0 | 0.08 | 0.24 | 0.24 | 83 | |
| 20260507071220 | 38 | 151 | 3.0 | 11.0 | 0.08 | 0.23 | 0.23 | 83 | |
| 20260507070730 | 38 | 111 | 3.0 | 7.0 | 0.09 | 0.23 | 0.23 | 84 | |
| 20260507070218 | 39 | 119 | 2.0 | 13.0 | 0.08 | 0.22 | 0.22 | 84 | |
| 20260507065729 | 39 | 106 | 5.0 | 13.0 | 0.09 | 0.22 | 0.22 | 82 | |
| 20260507065218 | 38 | 146 | 6.0 | 15.0 | 0.09 | 0.22 | 0.22 | 84 | |
| 20260507064726 | 38 | 165 | 8.0 | 15.0 | 0.09 | 0.21 | 0.21 | 83 | |
| 20260507064236 | 38 | 153 | 8.0 | 18.0 | 0.08 | 0.20 | 0.20 | 84 | |
| 20260507063725 | 38 | 139 | 6.0 | 18.0 | 0.08 | 0.20 | 0.20 | 85 | |
| 20260507063235 | 38 | 141 | 2.0 | 7.0 | 0.07 | 0.19 | 0.19 | 84 | |
| 20260507062728 | 38 | 96 | 3.0 | 7.0 | 0.06 | 0.18 | 0.18 | 85 | |
| 20260507062219 | 38 | 122 | 3.0 | 7.0 | 0.05 | 0.17 | 0.17 | 85 | |
| 20260507061727 | 38 | 136 | 3.0 | 8.0 | 0.05 | 0.16 | 0.16 | 85 | |
| 20260507061218 | 0 | 166 | 2.0 | 6.0 | 0.03 | 0.14 | 0.14 | 86 | |
| 20260507060729 | 38 | 106 | 4.0 | 6.0 | 0.03 | 0.14 | 0.14 | 86 | |
| 20260507060219 | 39 | 42 | 1.0 | 3.0 | 0.03 | 0.14 | 0.14 | 85 | |
| 20260507055729 | 39 | 130 | 0.0 | 4.0 | 0.02 | 0.13 | 0.13 | 86 | |
| 20260507055219 | 39 | 307 | 1.0 | 4.0 | 0.02 | 0.13 | 0.13 | 85 | |
| 20260507054224 | 39 | 270 | 2.0 | 3.0 | 0.01 | 0.12 | 0.12 | 84 | |
| 20260507053736 | 39 | 213 | 1.0 | 4.0 | 0.01 | 0.12 | 0.12 | 84 | |
| 20260507053225 | 39 | 80 | 0.0 | 7.0 | 0.02 | 0.12 | 0.12 | 83 | |
| 20260507052736 | 39 | 85 | 2.0 | 7.0 | 0.02 | 0.12 | 0.12 | 82 | |
| 20260507052226 | 39 | 146 | 2.0 | 7.0 | 0.02 | 0.12 | 0.12 | 85 | |
| 20260507051717 | 39 | 165 | 2.0 | 5.0 | 0.01 | 0.11 | 0.11 | 85 | |
| 20260507051226 | 39 | 173 | 1.0 | 4.0 | 0.02 | 0.11 | 0.11 | 85 | |
| 20260507050735 | 39 | 211 | 2.0 | 6.0 | 0.03 | 0.11 | 0.11 | 85 | |
| 20260507050226 | 39 | 237 | 2.0 | 7.0 | 0.05 | 0.11 | 0.11 | 85 | |
| 20260507045721 | 39 | 180 | 3.0 | 7.0 | 0.07 | 0.11 | 0.11 | 85 | |
| 20260507045232 | 39 | 173 | 1.0 | 6.0 | 0.09 | 0.11 | 0.11 | 85 | |
| 20260507044236 | 38 | 132 | 2.0 | 6.0 | 0.10 | 0.11 | 0.11 | 88 | |
| 20260507043727 | 38 | 168 | 3.0 | 6.0 | 0.11 | 0.11 | 0.11 | 88 | |
| 20260507042728 | 37 | 105 | 5.0 | 10.0 | 0.10 | 0.10 | 0.10 | 89 | |
| 20260507042219 | 37 | 96 | 6.0 | 10.0 | 0.10 | 0.10 | 0.10 | 89 | |
| 20260507041730 | 37 | 189 | 5.0 | 11.0 | 0.10 | 0.10 | 0.10 | 89 | |
| 20260507040737 | 37 | 123 | 7.0 | 14.0 | 0.08 | 0.08 | 0.08 | 88 | |
| 20260507040227 | 0 | 163 | 8.0 | 14.0 | 0.06 | 0.06 | 0.06 | ||
| 20260507035718 | 39 | 166 | 4.0 | 12.0 | 0.04 | 0.04 | 0.04 | ||
| 20260507035229 | 39 | 121 | 4.0 | 15.0 | 0.02 | 0.02 | 0.02 | 87 | |
| 20260507034720 | 40 | 215 | 8.0 | 22.0 | 0.01 | 0.01 | 0.01 | 85 | |
| 20260507034231 | 40 | 206 | 10.0 | 22.0 | 0.01 | 0.01 | 0.01 | 82 | |
| 20260507033721 | 42 | 184 | 7.0 | 15.0 | 0.00 | 0.00 | 0.00 | 73 | |
| 20260507033229 | 42 | 217 | 11.0 | 15.0 | 0.00 | 0.00 | 0.00 | 71 | |
| 20260507032724 | 42 | 211 | 5.0 | 8.0 | 0.00 | 0.00 | 0.00 | 73 | |
| 20260507032232 | 42 | 200 | 3.0 | 11.0 | 0.00 | 0.00 | 0.00 | 74 | |
| 20260507031722 | 42 | 167 | 4.0 | 15.0 | 0.00 | 0.00 | 0.00 | 75 | |
| 20260507031234 | 42 | 148 | 9.0 | 15.0 | 0.00 | 0.00 | 0.00 | 72 | |
| 20260507030722 | 43 | 117 | 9.0 | 16.0 | 0.00 | 0.00 | 0.00 | 71 | |
| 20260507030233 | 43 | 120 | 8.0 | 18.0 | 0.00 | 0.00 | 0.00 | 70 | |
| 20260507025723 | 44 | 156 | 9.0 | 14.0 | 0.00 | 0.00 | 0.00 | 68 | |
| 20260507025234 | 44 | 201 | 6.0 | 11.0 | 0.00 | 0.00 | 0.00 | 67 | |
| 20260507024723 | 44 | 148 | 6.0 | 11.0 | 0.00 | 0.00 | 0.00 | 67 | |
| 20260507023729 | 43 | 209 | 6.0 | 10.0 | 0.00 | 0.00 | 0.00 | 67 | |
| 20260507023218 | 43 | 128 | 4.0 | 11.0 | 0.00 | 0.00 | 0.00 | 68 | |
| 20260507022218 | 44 | 136 | 2.0 | 8.0 | 0.00 | 0.00 | 0.00 | 68 | |
| 20260507021727 | 44 | 201 | 3.0 | 13.0 | 0.00 | 0.00 | 0.00 | 67 | |
| 20260507021236 | 44 | 194 | 8.0 | 13.0 | 0.00 | 0.00 | 0.00 | 66 | |
| 20260507020726 | 44 | 192 | 3.0 | 9.0 | 0.00 | 0.00 | 0.00 | 67 | |
| 20260507020236 | 44 | 180 | 3.0 | 10.0 | 0.00 | 0.00 | 0.00 | 67 | |
| 20260507015725 | 44 | 131 | 6.0 | 10.0 | 0.00 | 0.00 | 0.00 | 66 | |
| 20260507015220 | 44 | 184 | 8.0 | 12.0 | 0.00 | 0.00 | 0.00 | 66 | |
| 20260507014730 | 44 | 166 | 8.0 | 12.0 | 0.00 | 0.00 | 0.00 | 65 | |
| 20260507014220 | 44 | 211 | 5.0 | 10.0 | 0.00 | 0.00 | 0.00 | 68 | |
| 20260507013730 | 44 | 155 | 4.0 | 10.0 | 0.00 | 0.00 | 0.00 | 67 | |
| 20260507012733 | 44 | 178 | 6.0 | 13.0 | 0.00 | 0.00 | 0.00 | 70 | |
| 20260507012223 | 44 | 171 | 8.0 | 13.0 | 0.00 | 0.00 | 0.00 | 71 | |
| 20260507011733 | 43 | 146 | 2.0 | 8.0 | 0.00 | 0.00 | 0.00 | 75 | |
| 20260507011222 | 43 | 185 | 4.0 | 8.0 | 0.00 | 0.00 | 0.00 | 74 | |
| 20260507010735 | 43 | 156 | 4.0 | 13.0 | 0.00 | 0.00 | 0.00 | 76 | |
| 20260507010224 | 42 | 185 | 5.0 | 15.0 | 0.00 | 0.00 | 0.00 | 76 | |
| 20260507005733 | 43 | 217 | 4.0 | 18.0 | 0.00 | 0.00 | 0.00 | 73 | |
| 20260507004226 | 42 | 65 | 1.0 | 7.0 | 0.00 | 0.00 | 0.00 | 80 | |
| 20260507003735 | 42 | 27 | 2.0 | 10.0 | 0.00 | 0.00 | 0.00 | 81 | |
| 20260507003224 | 42 | 6 | 7.0 | 10.0 | 0.00 | 0.00 | 0.00 | 79 | |
| 20260507002735 | 42 | 356 | 6.0 | 10.0 | 0.00 | 0.00 | 0.00 | 81 | |
| 20260507002224 | 42 | 360 | 7.0 | 10.0 | 0.00 | 0.00 | 0.00 | 78 | |
| 20260507001719 | 42 | 356 | 4.0 | 7.0 | 0.00 | 0.00 | 0.00 | 78 | |
| 20260507001229 | 42 | 8 | 5.0 | 7.0 | 0.00 | 0.00 | 0.00 | 79 | |
| 20260507000718 | 42 | 13 | 4.0 | 7.0 | 0.00 | 0.00 | 0.00 | 80 | |
| 20260507000229 | 42 | 360 | 5.0 | 9.0 | 0.00 | 0.00 | 0.00 | 80 | |
| 20260506235720 | 42 | 343 | 5.0 | 9.0 | 0.00 | 0.00 | 0.00 | 80 | |
| 20260506235231 | 42 | 308 | 5.0 | 8.0 | 0.00 | 0.00 | 0.00 | 79 | |
| 20260506234722 | 42 | 327 | 3.0 | 8.0 | 0.00 | 0.00 | 0.00 | 78 | |
| 20260506234233 | 42 | 307 | 4.0 | 9.0 | 0.00 | 0.00 | 0.00 | 79 | |
| 20260506233727 | 42 | 339 | 5.0 | 10.0 | 0.00 | 0.00 | 0.00 | 83 | |
| 20260506233218 | 43 | 8 | 7.0 | 15.0 | 0.00 | 0.00 | 0.00 | 78 | |
| 20260506232728 | 46 | 10 | 8.0 | 15.0 | 0.00 | 0.00 | 0.00 | 73 | |
| 20260506231730 | 46 | 179 | 3.0 | 10.0 | 0.00 | 0.00 | 0.00 | 58 | |
| 20260506231220 | 46 | 148 | 5.0 | 10.0 | 0.00 | 0.00 | 0.00 | 57 | |
| 20260506230728 | 46 | 175 | 4.0 | 9.0 | 0.00 | 0.00 | 0.00 | 59 | |
| 20260506230220 | 46 | 148 | 2.0 | 9.0 | 0.00 | 0.00 | 0.00 | 58 | |
| 20260506225222 | 46 | 173 | 5.0 | 12.0 | 0.00 | 0.00 | 0.00 | 57 | |
| 20260506224735 | 46 | 166 | 3.0 | 10.0 | 0.00 | 0.00 | 0.00 | 58 | |
| 20260506224223 | 47 | 153 | 4.0 | 9.0 | 0.00 | 0.00 | 0.00 | 57 | |
| 20260506223224 | 47 | 256 | 5.0 | 9.0 | 0.00 | 0.00 | 0.00 | 57 | |
| 20260506222225 | 47 | 202 | 5.0 | 9.0 | 0.00 | 0.00 | 0.00 | 58 | |
| 20260506221735 | 47 | 164 | 4.0 | 10.0 | 0.00 | 0.00 | 0.00 | 59 | |
| 20260506220718 | 46 | 219 | 8.0 | 12.0 | 0.00 | 0.00 | 0.00 | 58 | |
| 20260506215720 | 46 | 135 | 7.0 | 13.0 | 0.00 | 0.00 | 0.00 | 58 | |
| 20260506215233 | 46 | 114 | 8.0 | 12.0 | 0.00 | 0.00 | 0.00 | 59 | |
| 20260506214723 | 46 | 153 | 7.0 | 14.0 | 0.00 | 0.00 | 0.00 | 59 | |
| 20260506214233 | 46 | 268 | 9.0 | 14.0 | 0.00 | 0.00 | 0.00 | 59 | |
| 20260506213723 | 46 | 154 | 7.0 | 14.0 | 0.00 | 0.00 | 0.00 | 60 | |
| 20260506213233 | 46 | 168 | 8.0 | 14.0 | 0.00 | 0.00 | 0.00 | 61 | |
| 20260506212723 | 45 | 161 | 9.0 | 16.0 | 0.00 | 0.00 | 0.00 | 61 | |
| 20260506212234 | 45 | 209 | 10.0 | 18.0 | 0.00 | 0.00 | 0.00 | 61 | |
| 20260506210729 | 45 | 175 | 5.0 | 14.0 | 0.00 | 0.00 | 0.00 | 63 | |
| 20260506210222 | 45 | 179 | 6.0 | 13.0 | 0.00 | 0.00 | 0.00 | 63 | |
| 20260506205732 | 45 | 192 | 7.0 | 13.0 | 0.00 | 0.00 | 0.00 | 62 | |
| 20260506205223 | 45 | 195 | 7.0 | 13.0 | 0.00 | 0.00 | 0.00 | 63 | |
| 20260506204732 | 45 | 164 | 5.0 | 11.0 | 0.00 | 0.00 | 0.00 | 63 | |
| 20260506204224 | 45 | 160 | 2.0 | 12.0 | 0.00 | 0.00 | 0.00 | 67 | |
| 20260506203733 | 45 | 58 | 5.0 | 13.0 | 0.00 | 0.00 | 0.00 | 66 | |
| 20260506203224 | 45 | 194 | 6.0 | 10.0 | 0.00 | 0.00 | 0.00 | 66 | |
| 20260506202736 | 45 | 129 | 4.0 | 8.0 | 0.00 | 0.00 | 0.00 | 70 | |
| 20260506202230 | 44 | 314 | 3.0 | 7.0 | 0.00 | 0.00 | 0.00 | 69 | |
| 20260506201721 | 44 | 15 | 3.0 | 7.0 | 0.00 | 0.00 | 0.00 | 73 | |
| 20260506201230 | 44 | 333 | 4.0 | 7.0 | 0.00 | 0.00 | 0.00 | 73 | |
| 20260506200719 | 44 | 346 | 4.0 | 7.0 | 0.00 | 0.00 | 0.00 | 76 | |
| 20260506200230 | 43 | 19 | 5.0 | 7.0 | 0.00 | 0.00 | 0.00 | 76 | |
| 20260506195719 | 43 | 350 | 3.0 | 8.0 | 0.00 | 0.00 | 0.00 | 78 | |
| 20260506195229 | 43 | 349 | 6.0 | 8.0 | 0.00 | 0.00 | 0.00 | 77 | |
| 20260506194719 | 43 | 330 | 4.0 | 6.0 | 0.00 | 0.00 | 0.00 | 77 | |
| 20260506194230 | 43 | 264 | 2.0 | 6.0 | 0.00 | 0.00 | 0.00 | 77 | |
| 20260506193725 | 42 | 300 | 3.0 | 7.0 | 0.00 | 0.00 | 0.00 | 77 | |
| 20260506192727 | 43 | 309 | 4.0 | 7.0 | 0.00 | 0.00 | 0.00 | 76 | |
| 20260506192218 | 43 | 285 | 3.0 | 6.0 | 0.00 | 0.00 | 0.00 | 77 | |
| 20260506191729 | 42 | 21 | 2.0 | 5.0 | 0.00 | 0.00 | 0.00 | 76 | |
| 20260506191218 | 42 | 250 | 0.0 | 7.0 | 0.00 | 0.00 | 0.00 | 78 | |
| 20260506190728 | 42 | 304 | 4.0 | 7.0 | 0.00 | 0.00 | 0.00 | 77 | |
| 20260506190218 | 42 | 253 | 3.0 | 7.0 | 0.00 | 0.00 | 0.00 | 77 | |
| 20260506185726 | 42 | 258 | 3.0 | 6.0 | 0.00 | 0.00 | 0.00 | 77 | |
| 20260506185222 | 42 | 313 | 4.0 | 6.0 | 0.00 | 0.00 | 0.00 | 76 | |
| 20260506184732 | 42 | 52 | 3.0 | 6.0 | 0.00 | 0.00 | 0.00 | 77 | |
| 20260506183736 | 41 | 23 | 3.0 | 6.0 | 0.00 | 0.00 | 0.00 | 77 | |
| 20260506183225 | 41 | 338 | 4.0 | 6.0 | 0.00 | 0.00 | 0.00 | 78 | |
| 20260506182736 | 41 | 34 | 2.0 | 6.0 | 0.00 | 0.00 | 0.00 | 78 | |
| 20260506182227 | 40 | 32 | 4.0 | 6.0 | 0.00 | 0.00 | 0.00 | 78 | |
| 20260506181736 | 40 | 325 | 3.0 | 6.0 | 0.00 | 0.00 | 0.00 | 79 | |
| 20260506181228 | 40 | 18 | 4.0 | 7.0 | 0.00 | 0.00 | 0.00 | 80 | |
| 20260506180223 | 40 | 344 | 4.0 | 6.0 | 0.00 | 0.00 | 0.00 | 79 | |
| 20260506175734 | 40 | 346 | 3.0 | 5.0 | 0.00 | 0.00 | 0.00 | 80 | |
| 20260506175225 | 40 | 352 | 3.0 | 7.0 | 0.00 | 0.00 | 0.00 | 80 | |
| 20260506174734 | 40 | 348 | 5.0 | 7.0 | 0.00 | 0.00 | 0.00 | 80 | |
| 20260506174223 | 39 | 10 | 4.0 | 6.0 | 0.00 | 0.00 | 0.00 | 80 | |
| 20260506173735 | 39 | 344 | 4.0 | 6.0 | 0.00 | 0.00 | 0.00 | 80 | |
| 20260506172737 | 39 | 346 | 3.0 | 6.0 | 0.00 | 0.00 | 0.00 | 80 | |
| 20260506172231 | 39 | 354 | 4.0 | 7.0 | 0.00 | 0.00 | 0.00 | 80 | |
| 20260506171233 | 39 | 330 | 4.0 | 5.0 | 0.00 | 0.00 | 0.00 | 81 | |
| 20260506170725 | 39 | 358 | 3.0 | 6.0 | 0.00 | 0.00 | 0.00 | 81 | |
| 20260506170234 | 38 | 7 | 2.0 | 6.0 | 0.00 | 0.00 | 0.00 | 81 | |
| 20260506165237 | 38 | 353 | 2.0 | 5.0 | 0.00 | 0.00 | 0.00 | 81 | |
| 20260506164219 | 38 | 339 | 3.0 | 5.0 | 0.00 | 0.00 | 0.00 | 81 | |
| 20260506163729 | 38 | 34 | 3.0 | 5.0 | 0.00 | 0.00 | 0.00 | 81 | |
| 20260506163223 | 38 | 9 | 4.0 | 7.0 | 0.00 | 0.00 | 0.00 | 81 | |
| 20260506162734 | 38 | 354 | 4.0 | 7.0 | 0.00 | 0.00 | 0.00 | 81 | |
| 20260506162224 | 38 | 13 | 5.0 | 7.0 | 0.00 | 0.00 | 0.00 | 81 | |
| 20260506161733 | 38 | 349 | 4.0 | 5.0 | 0.00 | 0.00 | 0.00 | 81 | |
| 20260506161224 | 38 | 3 | 3.0 | 5.0 | 0.00 | 0.00 | 0.00 | 81 | |
| 20260506160734 | 38 | 24 | 4.0 | 6.0 | 0.00 | 0.00 | 0.00 | 81 | |
| 20260506160225 | 38 | 4 | 4.0 | 6.0 | 0.00 | 0.00 | 0.00 | 81 | |
| 20260506155736 | 38 | 349 | 4.0 | 7.0 | 0.00 | 0.00 | 0.00 | 81 | |
| 20260506155226 | 38 | 350 | 4.0 | 7.0 | 0.00 | 0.00 | 0.00 | 81 | |
| 20260506154722 | 38 | 340 | 3.0 | 5.0 | 0.00 | 0.00 | 0.00 | 81 | |
| 20260506154231 | 38 | 359 | 2.0 | 5.0 | 0.00 | 0.00 | 0.00 | 80 | |
| 20260506153234 | 38 | 350 | 3.0 | 5.0 | 0.00 | 0.00 | 0.00 | 80 | |
| 20260506152724 | 38 | 56 | 4.0 | 5.0 | 0.00 | 0.00 | 0.00 | 80 | |
| 20260506152236 | 38 | 20 | 3.0 | 5.0 | 0.00 | 0.00 | 0.00 | 80 | |
| 20260506151725 | 38 | 25 | 2.0 | 6.0 | 0.00 | 0.00 | 0.00 | 79 | |
| 20260506150728 | 38 | 25 | 4.0 | 5.0 | 0.00 | 0.00 | 0.00 | 79 | |
| 20260506150220 | 38 | 22 | 2.0 | 3.0 | 0.00 | 0.00 | 0.00 | 78 | |
| 20260506145731 | 38 | 323 | 2.0 | 3.0 | 0.00 | 0.00 | 0.00 | 78 | |
| 20260506145221 | 38 | 337 | 1.0 | 3.0 | 0.00 | 0.00 | 0.00 | 77 | |
| 20260506144224 | 38 | 328 | 0.0 | 2.0 | 0.00 | 0.00 | 0.00 | 76 | |
| 20260506143734 | 38 | 4 | 0.0 | 0.0 | 0.00 | 0.00 | 0.00 | 75 | |
| 20260506143224 | 38 | 4 | 0.0 | 0.0 | 0.00 | 0.00 | 0.00 | 75 | |
| 20260506142734 | 38 | 4 | 0.0 | 0.0 | 0.00 | 0.00 | 0.00 | 75 | |
| 20260506142225 | 39 | 4 | 0.0 | 5.0 | 0.00 | 0.00 | 0.00 | 75 | |
| 20260506141719 | 39 | 356 | 2.0 | 5.0 | 0.00 | 0.00 | 0.00 | 74 | |
| 20260506141230 | 39 | 331 | 2.0 | 4.0 | 0.00 | 0.00 | 0.00 | 74 | |
| 20260506140721 | 39 | 327 | 3.0 | 4.0 | 0.00 | 0.00 | 0.00 | 73 | |
| 20260506140231 | 39 | 333 | 3.0 | 4.0 | 0.00 | 0.00 | 0.00 | 73 | |
| 20260506135721 | 39 | 287 | 2.0 | 3.0 | 0.00 | 0.00 | 0.00 | 73 | |
| 20260506135232 | 39 | 324 | 2.0 | 3.0 | 0.00 | 0.00 | 0.00 | 72 | |
| 20260506134721 | 40 | 318 | 2.0 | 4.0 | 0.00 | 0.00 | 0.00 | 71 | |
| 20260506134231 | 40 | 10 | 0.0 | 6.0 | 0.00 | 0.00 | 0.00 | 71 | |
| 20260506133722 | 40 | 9 | 4.0 | 6.0 | 0.00 | 0.00 | 0.00 | 70 | |
| 20260506133236 | 40 | 348 | 3.0 | 4.0 | 0.00 | 0.00 | 0.00 | 69 | |
| 20260506132726 | 41 | 2 | 0.0 | 4.0 | 0.00 | 0.00 | 0.00 | 68 | |
| 20260506132236 | 41 | 44 | 0.0 | 7.0 | 0.00 | 0.00 | 0.00 | 68 | |
| 20260506131727 | 41 | 156 | 1.0 | 10.0 | 0.00 | 0.00 | 0.00 | 67 | |
| 20260506131219 | 41 | 145 | 5.0 | 10.0 | 0.00 | 0.00 | 0.00 | 68 | |
| 20260506130728 | 41 | 107 | 3.0 | 6.0 | 0.00 | 0.00 | 0.00 | 68 | |
| 20260506130217 | 41 | 125 | 3.0 | 7.0 | 0.00 | 0.00 | 0.00 | 68 | |
| 20260506125727 | 41 | 173 | 2.0 | 8.0 | 0.00 | 0.00 | 0.00 | 67 | |
| 20260506125222 | 41 | 155 | 3.0 | 7.0 | 0.00 | 0.00 | 0.00 | 67 | |
| 20260506124733 | 41 | 163 | 2.0 | 6.0 | 0.00 | 0.00 | 0.00 | 66 | |
| 20260506124223 | 41 | 186 | 1.0 | 8.0 | 0.00 | 0.00 | 0.00 | 66 | |
| 20260506123734 | 41 | 166 | 5.0 | 12.0 | 0.00 | 0.00 | 0.00 | 67 | |
| 20260506123223 | 41 | 109 | 6.0 | 13.0 | 0.00 | 0.00 | 0.00 | 66 | |
| 20260506122733 | 41 | 186 | 5.0 | 10.0 | 0.00 | 0.00 | 0.00 | 66 | |
| 20260506122224 | 41 | 174 | 4.0 | 9.0 | 0.00 | 0.00 | 0.00 | 67 | |
| 20260506121732 | 41 | 120 | 4.0 | 8.0 | 0.00 | 0.00 | 0.00 | 66 | |
| 20260506121223 | 41 | 165 | 4.0 | 14.0 | 0.00 | 0.00 | 0.00 | 66 | |
| 20260506120718 | 41 | 112 | 6.0 | 18.0 | 0.00 | 0.00 | 0.00 | 66 | |
| 20260506115721 | 41 | 148 | 7.0 | 19.0 | 0.00 | 0.00 | 0.00 | 67 | |
| 20260506114721 | 41 | 108 | 8.0 | 15.0 | 0.00 | 0.00 | 0.00 | 67 | |
| 20260506113721 | 41 | 136 | 5.0 | 14.0 | 0.00 | 0.00 | 0.00 | 68 | |
| 20260506113230 | 40 | 175 | 6.0 | 14.0 | 0.00 | 0.00 | 0.00 | 69 | |
| 20260506112231 | 40 | 138 | 8.0 | 17.0 | 0.00 | 0.00 | 0.00 | 69 | |
| 20260506111721 | 40 | 162 | 10.0 | 19.0 | 0.00 | 0.00 | 0.00 | 69 | |
| 20260506111235 | 40 | 173 | 9.0 | 16.0 | 0.00 | 0.00 | 0.00 | 69 | |
| 20260506110235 | 40 | 159 | 8.0 | 14.0 | 0.00 | 0.00 | 0.00 | 69 | |
| 20260506105724 | 40 | 165 | 9.0 | 16.0 | 0.00 | 0.00 | 0.00 | 69 | |
| 20260506104726 | 41 | 173 | 8.0 | 16.0 | 0.00 | 0.00 | 0.00 | 69 | |
| 20260506104236 | 40 | 188 | 8.0 | 18.0 | 0.00 | 0.00 | 0.00 | 68 | |
| 20260506103724 | 40 | 152 | 9.0 | 18.0 | 0.00 | 0.00 | 0.00 | 69 | |
| 20260506103234 | 40 | 165 | 9.0 | 15.0 | 0.00 | 0.00 | 0.00 | 68 | |
| 20260506102724 | 40 | 202 | 7.0 | 12.0 | 0.00 | 0.00 | 0.00 | 69 | |
| 20260506102218 | 40 | 175 | 7.0 | 17.0 | 0.00 | 0.00 | 0.00 | 69 | |
| 20260506101219 | 40 | 183 | 10.0 | 17.0 | 0.00 | 0.00 | 0.00 | 69 | |
| 20260506100728 | 40 | 188 | 9.0 | 16.0 | 0.00 | 0.00 | 0.00 | 69 | |
| 20260506100218 | 40 | 179 | 10.0 | 21.0 | 0.00 | 0.00 | 0.00 | 70 |